Time;durP1;ratioP1;P1;durP2;ratioP2;P2;SDS_P1;SDS_P2;PMS_P1;PMS_P2;Temp;Humidity;BMP_temperature;BMP_pressure;BME280_temperature;BME280_humidity;BME280_pressure;Samples;Min_cycle;Max_cycle;Signal;HPM_P1;HPM_P2
2021/07/02 00:00:12;;;;;;;20.90;12.65;;;17.50;90.60;;;;;;5118460;27;20071;-89
2021/07/02 00:02:39;;;;;;;23.70;12.45;;;17.50;90.60;;;;;;5133481;27;20108;-87
2021/07/02 00:05:07;;;;;;;19.05;11.35;;;17.50;90.60;;;;;;5132724;27;20047;-88
2021/07/02 00:07:33;;;;;;;26.52;13.38;;;17.50;90.60;;;;;;5133633;27;20075;-89
2021/07/02 00:09:59;;;;;;;28.02;13.88;;;17.50;90.50;;;;;;5133725;27;20063;-88
2021/07/02 00:12:24;;;;;;;30.33;13.23;;;17.50;90.60;;;;;;5133234;27;20070;-89
2021/07/02 00:14:50;;;;;;;18.15;12.00;;;17.50;90.70;;;;;;5134350;27;20094;-89
2021/07/02 00:17:15;;;;;;;25.83;13.07;;;17.50;90.70;;;;;;5133543;27;20073;-89
2021/07/02 00:19:41;;;;;;;21.63;11.90;;;17.50;90.80;;;;;;5122619;27;20055;-87
2021/07/02 00:22:07;;;;;;;25.02;12.65;;;17.50;90.50;;;;;;5112505;28;20522;-87
2021/07/02 00:24:32;;;;;;;21.35;11.60;;;17.40;90.40;;;;;;5111910;28;20040;-86
2021/07/02 00:26:58;;;;;;;18.58;11.88;;;17.50;90.60;;;;;;5117353;28;20124;-86
2021/07/02 00:29:24;;;;;;;17.75;11.27;;;17.50;90.50;;;;;;5133415;28;20071;-87
2021/07/02 00:31:50;;;;;;;24.08;11.70;;;17.50;90.60;;;;;;5132800;28;20046;-86
2021/07/02 00:34:16;;;;;;;20.55;11.05;;;17.40;90.60;;;;;;5133707;28;20047;-87
2021/07/02 00:36:41;;;;;;;18.55;11.25;;;17.40;90.60;;;;;;5133232;28;20138;-87
2021/07/02 00:39:08;;;;;;;23.27;11.68;;;17.50;90.70;;;;;;5132900;28;20116;-87
2021/07/02 00:41:34;;;;;;;19.83;10.80;;;17.50;90.60;;;;;;5133014;28;20074;-87
2021/07/02 00:44:00;;;;;;;18.98;11.05;;;17.50;90.30;;;;;;5133982;28;20047;-87
2021/07/02 00:46:26;;;;;;;19.50;10.90;;;17.40;90.30;;;;;;5132140;28;20383;-86
2021/07/02 00:48:52;;;;;;;22.60;11.38;;;17.40;90.50;;;;;;5115854;28;20127;-85
2021/07/02 00:51:18;;;;;;;21.83;10.77;;;17.40;90.50;;;;;;5111145;28;20058;-87
2021/07/02 00:53:44;;;;;;;20.02;11.32;;;17.40;90.40;;;;;;5108713;28;20106;-86
2021/07/02 00:56:11;;;;;;;20.63;10.68;;;17.40;90.50;;;;;;5110534;28;20055;-86
2021/07/02 00:58:37;;;;;;;20.60;10.23;;;17.40;90.40;;;;;;5112598;28;20079;-86
2021/07/02 01:01:04;;;;;;;19.10;10.73;;;17.30;90.60;;;;;;5111532;28;20082;-87
2021/07/02 01:03:30;;;;;;;21.00;10.43;;;17.30;90.50;;;;;;5112473;28;20048;-86
2021/07/02 01:05:56;;;;;;;19.63;10.07;;;17.30;90.60;;;;;;5114103;28;20123;-87
2021/07/02 01:08:23;;;;;;;27.90;11.07;;;17.30;90.60;;;;;;5132056;28;20051;-86
2021/07/02 01:10:49;;;;;;;23.40;10.93;;;17.30;90.60;;;;;;5131069;28;20051;-85
2021/07/02 01:13:14;;;;;;;18.23;9.80;;;17.20;90.60;;;;;;5129453;28;20043;-86
2021/07/02 01:15:40;;;;;;;20.33;10.90;;;17.20;90.50;;;;;;5131839;28;20384;-86
2021/07/02 01:18:10;;;;;;;19.10;10.00;;;17.20;90.50;;;;;;5133024;28;20448;-86
2021/07/02 01:20:36;;;;;;;18.58;9.60;;;17.20;90.50;;;;;;5131947;28;20122;-87
2021/07/02 01:23:03;;;;;;;20.70;11.18;;;17.20;90.40;;;;;;5133216;28;20048;-85
2021/07/02 01:25:32;;;;;;;18.75;10.35;;;17.20;90.60;;;;;;5132941;28;20043;-85
2021/07/02 01:28:01;;;;;;;19.30;9.80;;;17.20;90.80;;;;;;5132167;28;20191;-87
2021/07/02 01:30:27;;;;;;;24.65;10.73;;;17.20;90.50;;;;;;5115369;28;20403;-87
2021/07/02 01:32:52;;;;;;;23.33;9.80;;;17.20;90.50;;;;;;5112428;28;20130;-87
2021/07/02 01:35:18;;;;;;;18.23;9.27;;;17.20;90.50;;;;;;5115200;28;20126;-87
2021/07/02 01:37:45;;;;;;;19.00;9.60;;;17.20;90.40;;;;;;5115495;28;20051;-86
2021/07/02 01:40:12;;;;;;;16.73;9.90;;;17.20;90.50;;;;;;5117451;27;20043;-87
2021/07/02 01:42:38;;;;;;;20.02;9.48;;;17.10;90.40;;;;;;5115075;28;20047;-86
2021/07/02 01:45:07;;;;;;;17.27;9.27;;;17.10;90.50;;;;;;5116083;28;20505;-87
2021/07/02 01:47:33;;;;;;;19.23;9.63;;;17.10;90.40;;;;;;5115553;28;20499;-86
2021/07/02 01:50:00;;;;;;;21.05;10.55;;;17.10;90.50;;;;;;5114943;27;20054;-86
2021/07/02 01:52:26;;;;;;;13.50;8.18;;;17.10;90.60;;;;;;5115451;28;20498;-87
2021/07/02 01:54:51;;;;;;;18.77;9.57;;;17.10;90.30;;;;;;5116058;28;20069;-87
2021/07/02 01:57:26;;;;;;;18.95;9.52;;;17.10;90.40;;;;;;5113201;28;20096;-87
2021/07/02 01:59:52;;;;;;;15.65;8.57;;;17.10;90.30;;;;;;5113902;28;20043;-87
2021/07/02 02:02:17;;;;;;;13.75;8.60;;;17.10;90.20;;;;;;5112985;28;20058;-87
2021/07/02 02:04:43;;;;;;;18.42;9.38;;;17.10;90.30;;;;;;5115624;27;20044;-87
2021/07/02 02:07:09;;;;;;;14.45;8.70;;;17.00;90.40;;;;;;5116007;28;20448;-87
2021/07/02 02:09:35;;;;;;;13.75;8.25;;;17.10;90.40;;;;;;5115703;27;20043;-87
2021/07/02 02:12:01;;;;;;;16.58;8.80;;;17.10;90.50;;;;;;5114918;28;20104;-87
2021/07/02 02:14:27;;;;;;;15.05;8.52;;;17.00;90.50;;;;;;5115355;28;20517;-87
2021/07/02 02:16:54;;;;;;;14.88;7.70;;;17.00;90.50;;;;;;5114076;28;20486;-88
2021/07/02 02:19:20;;;;;;;14.07;8.32;;;17.00;90.30;;;;;;5115379;28;20072;-88
2021/07/02 02:21:46;;;;;;;13.38;8.10;;;17.00;90.20;;;;;;5115366;28;20047;-87
2021/07/02 02:24:12;;;;;;;16.83;9.15;;;17.00;90.30;;;;;;5114702;28;20047;-88
2021/07/02 02:26:37;;;;;;;16.77;8.40;;;17.00;90.40;;;;;;5114837;28;20515;-88
2021/07/02 02:29:03;;;;;;;12.02;8.02;;;17.00;90.40;;;;;;5115176;28;20048;-86
2021/07/02 02:31:29;;;;;;;15.02;8.43;;;17.00;90.40;;;;;;5114137;28;20074;-88
2021/07/02 02:33:55;;;;;;;13.02;8.68;;;17.00;90.40;;;;;;5115183;28;20097;-87
2021/07/02 02:36:21;;;;;;;15.00;8.57;;;17.00;90.20;;;;;;5115221;28;20558;-86
2021/07/02 02:38:47;;;;;;;15.68;8.40;;;17.00;90.40;;;;;;5114593;28;20495;-86
2021/07/02 02:41:13;;;;;;;15.65;9.00;;;17.00;90.40;;;;;;5115035;28;20055;-86
2021/07/02 02:43:39;;;;;;;17.40;8.80;;;17.00;90.50;;;;;;5114513;28;20411;-87
2021/07/02 02:46:05;;;;;;;18.08;8.90;;;17.00;90.50;;;;;;5114225;28;20551;-86
2021/07/02 02:48:31;;;;;;;16.30;8.27;;;17.00;90.40;;;;;;5123329;27;20047;-86
2021/07/02 02:50:57;;;;;;;14.85;8.52;;;17.00;90.40;;;;;;5135053;27;20058;-85
2021/07/02 02:53:23;;;;;;;15.00;8.30;;;17.00;90.30;;;;;;5134104;27;20051;-86
2021/07/02 02:55:49;;;;;;;14.32;8.40;;;17.00;90.40;;;;;;5135283;27;20123;-86
2021/07/02 02:58:15;;;;;;;15.88;8.25;;;17.00;90.50;;;;;;5135141;27;20043;-86
2021/07/02 03:00:41;;;;;;;13.55;7.65;;;17.00;90.50;;;;;;5133579;27;20051;-86
2021/07/02 03:03:06;;;;;;;13.18;7.82;;;17.00;90.60;;;;;;5134214;27;20091;-87
2021/07/02 03:05:32;;;;;;;17.73;8.55;;;17.00;90.40;;;;;;5115310;27;20059;-87
2021/07/02 03:07:58;;;;;;;16.17;8.23;;;17.00;90.30;;;;;;5118830;27;20088;-88
2021/07/02 03:10:23;;;;;;;12.82;7.55;;;17.00;90.30;;;;;;5134058;27;20047;-88
2021/07/02 03:12:49;;;;;;;14.20;8.43;;;17.00;90.30;;;;;;5134769;27;20134;-88
2021/07/02 03:15:15;;;;;;;16.55;8.10;;;17.00;90.50;;;;;;5134217;27;20405;-88
2021/07/02 03:17:41;;;;;;;20.50;8.98;;;17.00;90.60;;;;;;5134244;27;20125;-87
2021/07/02 03:20:11;;;;;;;14.15;8.13;;;17.00;90.50;;;;;;5134416;27;20043;-86
2021/07/02 03:22:37;;;;;;;18.10;8.40;;;17.00;90.40;;;;;;5134994;27;20051;-87
2021/07/02 03:25:07;;;;;;;14.55;8.30;;;16.90;90.50;;;;;;5135315;27;20047;-87
2021/07/02 03:27:33;;;;;;;13.73;7.60;;;16.90;90.50;;;;;;5128382;27;20087;-87
2021/07/02 03:29:58;;;;;;;13.88;7.70;;;16.90;90.50;;;;;;5114094;28;20404;-87
2021/07/02 03:32:24;;;;;;;13.77;7.57;;;16.90;90.40;;;;;;5114289;28;20441;-87
2021/07/02 03:34:50;;;;;;;12.60;7.13;;;16.90;90.40;;;;;;5124023;27;20471;-87
2021/07/02 03:37:16;;;;;;;12.07;7.40;;;16.90;90.30;;;;;;5134399;27;20121;-86
2021/07/02 03:39:43;;;;;;;14.02;7.72;;;16.90;90.30;;;;;;5134101;27;20482;-87
2021/07/02 03:42:08;;;;;;;16.23;8.10;;;16.90;90.40;;;;;;5133300;27;20049;-87
2021/07/02 03:44:35;;;;;;;14.77;8.27;;;16.90;90.40;;;;;;5134094;27;20051;-87
2021/07/02 03:47:01;;;;;;;12.20;7.60;;;16.90;90.50;;;;;;5130957;27;20557;-87
2021/07/02 03:49:28;;;;;;;17.10;8.40;;;16.90;90.40;;;;;;5112575;28;20060;-88
2021/07/02 03:51:54;;;;;;;15.30;7.82;;;16.90;90.60;;;;;;5113629;28;20051;-87
2021/07/02 03:54:20;;;;;;;17.80;10.23;;;16.90;90.60;;;;;;5112951;28;20096;-88
2021/07/02 03:59:30;;;;;;;20.90;9.90;;;16.80;90.80;;;;;;5121200;27;20039;-87
2021/07/02 04:01:55;;;;;;;13.32;7.72;;;16.80;91.00;;;;;;5133803;27;20101;-86
2021/07/02 04:04:22;;;;;;;12.45;7.80;;;16.80;91.00;;;;;;5133218;27;20054;-86
2021/07/02 04:06:48;;;;;;;16.77;9.18;;;16.80;90.80;;;;;;5130914;27;20052;-86
2021/07/02 04:09:15;;;;;;;14.57;7.85;;;16.80;90.90;;;;;;5112509;28;20249;-86
2021/07/02 04:11:40;;;;;;;16.08;8.10;;;16.80;90.80;;;;;;5110861;28;20074;-86
2021/07/02 04:14:06;;;;;;;15.38;8.60;;;16.80;90.80;;;;;;5110684;28;20052;-87
2021/07/02 04:16:32;;;;;;;15.00;8.02;;;16.70;90.80;;;;;;5111736;28;20116;-86
2021/07/02 04:18:58;;;;;;;15.27;9.25;;;16.70;90.70;;;;;;5113348;28;20442;-86
2021/07/02 04:21:23;;;;;;;16.20;8.95;;;16.70;90.80;;;;;;5112909;28;20461;-87
2021/07/02 04:23:49;;;;;;;16.13;9.45;;;16.70;90.80;;;;;;5112905;28;20562;-86
2021/07/02 04:26:15;;;;;;;17.02;10.02;;;16.80;91.10;;;;;;5112983;28;20403;-86
2021/07/02 04:28:41;;;;;;;18.30;10.07;;;16.80;91.20;;;;;;5113713;28;20075;-86
2021/07/02 04:31:07;;;;;;;13.45;7.88;;;16.70;91.20;;;;;;5133121;28;20043;-86
2021/07/02 04:33:33;;;;;;;13.75;7.95;;;16.70;91.20;;;;;;5133789;28;20050;-87
2021/07/02 04:35:59;;;;;;;15.80;7.53;;;16.70;91.00;;;;;;5133593;28;20403;-86
2021/07/02 04:38:24;;;;;;;11.57;7.75;;;16.70;91.00;;;;;;5130452;28;20092;-87
2021/07/02 04:40:50;;;;;;;16.55;9.27;;;16.70;91.00;;;;;;5134749;28;20042;-85
2021/07/02 04:43:16;;;;;;;15.63;8.75;;;16.70;91.10;;;;;;5129791;28;20043;-86
2021/07/02 04:45:42;;;;;;;18.48;9.35;;;16.70;91.10;;;;;;5115278;28;20052;-87
2021/07/02 04:48:08;;;;;;;16.65;9.82;;;16.70;91.20;;;;;;5114059;28;20445;-85
2021/07/02 04:50:35;;;;;;;14.57;8.65;;;16.70;91.30;;;;;;5113139;28;20043;-87
2021/07/02 04:53:01;;;;;;;14.25;8.48;;;16.70;91.20;;;;;;5114926;28;20048;-85
2021/07/02 04:55:27;;;;;;;13.23;8.25;;;16.70;91.40;;;;;;5112545;28;20051;-85
2021/07/02 04:57:53;;;;;;;15.27;8.90;;;16.80;91.20;;;;;;5113128;28;20055;-86
2021/07/02 05:00:18;;;;;;;16.88;9.48;;;16.70;91.20;;;;;;5126791;28;20130;-86
2021/07/02 05:02:44;;;;;;;16.65;10.07;;;16.80;91.40;;;;;;5120698;28;20130;-86
2021/07/02 05:05:11;;;;;;;16.08;9.55;;;16.70;91.40;;;;;;5112887;28;20048;-86
2021/07/02 05:07:38;;;;;;;14.27;9.18;;;16.70;91.30;;;;;;5118819;28;20075;-86
2021/07/02 05:10:05;;;;;;;15.02;9.77;;;16.70;91.30;;;;;;5127124;27;20088;-86
2021/07/02 05:12:31;;;;;;;13.23;8.23;;;16.70;91.30;;;;;;5127814;27;20498;-86
2021/07/02 05:14:57;;;;;;;20.23;10.52;;;16.70;91.30;;;;;;5127906;27;20043;-85
2021/07/02 05:17:23;;;;;;;14.23;9.38;;;16.70;91.50;;;;;;5125468;27;20069;-85
2021/07/02 05:19:49;;;;;;;12.75;8.55;;;16.70;91.40;;;;;;5124677;27;20040;-85
2021/07/02 05:22:19;;;;;;;12.65;9.02;;;16.70;91.30;;;;;;5126962;27;20074;-85
2021/07/02 05:24:46;;;;;;;16.70;9.25;;;16.70;91.50;;;;;;5125561;27;20099;-86
2021/07/02 05:27:11;;;;;;;12.95;9.45;;;16.70;91.60;;;;;;5123787;27;20082;-86
2021/07/02 05:29:37;;;;;;;14.38;8.95;;;16.70;91.80;;;;;;5127590;27;20067;-87
2021/07/02 05:32:04;;;;;;;14.35;9.70;;;16.70;91.70;;;;;;5122434;27;20456;-85
2021/07/02 05:34:33;;;;;;;14.50;9.35;;;16.70;91.80;;;;;;5124667;27;20466;-85
2021/07/02 05:36:59;;;;;;;12.15;7.97;;;16.70;91.80;;;;;;5124230;27;20071;-85
2021/07/02 05:39:25;;;;;;;12.68;8.15;;;16.70;91.70;;;;;;5125451;27;20123;-86
2021/07/02 05:41:50;;;;;;;12.93;8.48;;;16.70;91.60;;;;;;5126094;27;20134;-87
2021/07/02 05:44:16;;;;;;;12.95;9.05;;;16.70;91.70;;;;;;5125514;27;20043;-86
2021/07/02 05:46:42;;;;;;;11.85;7.93;;;16.70;91.70;;;;;;5125470;27;20104;-85
2021/07/02 05:49:08;;;;;;;14.18;10.15;;;16.70;91.70;;;;;;5124512;27;20138;-85
2021/07/02 05:51:34;;;;;;;12.68;8.13;;;16.70;91.90;;;;;;5121068;27;20048;-86
2021/07/02 05:54:00;;;;;;;13.35;8.90;;;16.70;91.80;;;;;;5129740;27;20055;-87
2021/07/02 05:56:28;;;;;;;12.48;8.50;;;16.70;91.80;;;;;;5114823;28;20473;-87
2021/07/02 05:58:55;;;;;;;17.23;9.63;;;16.70;91.70;;;;;;5117042;27;20093;-85
2021/07/02 06:01:21;;;;;;;14.88;9.85;;;16.70;91.80;;;;;;5115578;28;20043;-86
2021/07/02 06:03:47;;;;;;;14.25;9.00;;;16.70;91.80;;;;;;5115177;28;20097;-85
2021/07/02 06:06:12;;;;;;;13.23;9.00;;;16.70;91.80;;;;;;5115857;28;20047;-87
2021/07/02 06:08:38;;;;;;;18.63;11.50;;;16.70;91.80;;;;;;5131519;27;20407;-88
2021/07/02 06:11:04;;;;;;;14.50;9.35;;;16.70;91.90;;;;;;5135557;27;20458;-89
2021/07/02 06:13:30;;;;;;;15.73;10.30;;;16.70;91.80;;;;;;5136106;27;20065;-85
2021/07/02 06:15:55;;;;;;;14.80;9.77;;;16.70;91.90;;;;;;5135790;27;20043;-85
2021/07/02 06:18:21;;;;;;;15.88;10.45;;;16.70;91.90;;;;;;5133945;27;20091;-84
2021/07/02 06:20:51;;;;;;;12.82;9.55;;;16.80;91.90;;;;;;5135195;27;20078;-85
2021/07/02 06:23:18;;;;;;;17.92;11.90;;;16.70;91.90;;;;;;5119432;27;20048;-86
2021/07/02 06:25:44;;;;;;;11.02;8.43;;;16.80;92.00;;;;;;5130649;27;20043;-88
2021/07/02 06:28:10;;;;;;;13.13;8.75;;;16.80;91.90;;;;;;5136075;27;20043;-88
2021/07/02 06:30:36;;;;;;;17.02;10.85;;;16.80;91.80;;;;;;5133041;27;20078;-88
2021/07/02 06:33:02;;;;;;;20.40;12.95;;;16.80;91.90;;;;;;5117913;27;20040;-89
2021/07/02 06:35:27;;;;;;;18.77;11.57;;;16.80;91.90;;;;;;5125025;27;20039;-89
2021/07/02 06:37:53;;;;;;;15.88;10.50;;;16.80;92.00;;;;;;5134178;27;20051;-90
2021/07/02 06:40:19;;;;;;;13.30;9.50;;;16.80;91.90;;;;;;5135993;27;20045;-85
2021/07/02 06:42:45;;;;;;;15.10;10.15;;;16.80;91.80;;;;;;5134748;27;20108;-85
2021/07/02 06:45:12;;;;;;;15.95;9.75;;;16.80;91.70;;;;;;5134784;27;20047;-86
2021/07/02 06:47:57;;;;;;;13.68;9.43;;;16.80;91.70;;;;;;5133100;27;20057;-86
2021/07/02 06:50:34;;;;;;;18.00;11.55;;;16.80;91.50;;;;;;5133263;27;20055;-87
2021/07/02 06:53:03;;;;;;;16.30;11.45;;;16.80;91.80;;;;;;5114370;28;20062;-87
2021/07/02 06:55:51;;;;;;;19.08;12.35;;;16.90;91.90;;;;;;5103005;27;20128;-88
2021/07/02 06:58:17;;;;;;;17.05;11.70;;;16.90;91.90;;;;;;5123580;27;20118;-88
2021/07/02 07:00:43;;;;;;;22.63;13.43;;;16.90;91.90;;;;;;5113626;28;20483;-88
2021/07/02 07:03:09;;;;;;;16.48;11.07;;;16.90;92.00;;;;;;5115107;28;20059;-87
2021/07/02 07:05:36;;;;;;;16.38;10.57;;;16.90;92.00;;;;;;5113631;28;20111;-88
2021/07/02 07:08:02;;;;;;;20.83;13.50;;;16.90;92.00;;;;;;5126961;27;20043;-89
2021/07/02 07:10:32;;;;;;;16.90;10.88;;;16.90;92.20;;;;;;5134696;27;20074;-88
2021/07/02 07:12:58;;;;;;;21.27;11.52;;;16.90;92.10;;;;;;5134220;27;20049;-87
2021/07/02 07:15:25;;;;;;;22.98;13.00;;;16.90;92.10;;;;;;5134985;27;20108;-87
2021/07/02 07:17:51;;;;;;;15.20;10.38;;;16.90;92.20;;;;;;5135237;27;20130;-88
2021/07/02 07:20:18;;;;;;;19.98;13.02;;;16.90;92.10;;;;;;5133792;27;20051;-87
2021/07/02 07:22:46;;;;;;;20.05;12.35;;;16.90;92.20;;;;;;5134559;27;20050;-87
2021/07/02 07:25:12;;;;;;;18.15;11.90;;;16.90;92.20;;;;;;5132071;27;20067;-88
2021/07/02 07:27:38;;;;;;;17.48;11.10;;;16.90;92.30;;;;;;5114260;27;20083;-89
2021/07/02 07:30:05;;;;;;;16.92;10.85;;;16.90;92.30;;;;;;5114436;28;20097;-87
2021/07/02 07:32:32;;;;;;;15.27;10.98;;;16.90;92.20;;;;;;5113294;28;20108;-88
2021/07/02 07:35:03;;;;;;;15.57;10.48;;;17.00;92.10;;;;;;5113766;28;20047;-87
2021/07/02 07:37:32;;;;;;;14.52;10.65;;;17.00;92.10;;;;;;5113450;28;20055;-89
2021/07/02 07:39:58;;;;;;;16.08;10.35;;;17.00;92.10;;;;;;5113848;28;20078;-89
2021/07/02 07:42:24;;;;;;;17.00;10.50;;;17.00;92.30;;;;;;5113514;28;20398;-88
2021/07/02 07:44:49;;;;;;;15.60;10.38;;;17.00;92.40;;;;;;5114664;28;20044;-92
2021/07/02 07:47:15;;;;;;;13.48;10.23;;;17.10;92.40;;;;;;5115788;28;20044;-93
2021/07/02 07:49:44;;;;;;;16.63;10.23;;;17.10;92.50;;;;;;5114071;28;20134;-90
2021/07/02 07:54:37;;;;;;;13.75;9.82;;;17.20;92.60;;;;;;5112874;28;20050;-89
2021/07/02 07:57:03;;;;;;;15.60;10.48;;;17.20;92.40;;;;;;5122848;27;20130;-88
2021/07/02 07:59:30;;;;;;;12.98;8.43;;;17.20;92.40;;;;;;5125551;27;20047;-89
2021/07/02 08:01:57;;;;;;;15.82;9.13;;;17.20;92.20;;;;;;5122959;27;20137;-88
2021/07/02 08:04:26;;;;;;;12.63;8.55;;;17.20;92.30;;;;;;5125113;27;20130;-88
2021/07/02 08:06:52;;;;;;;11.02;7.88;;;17.30;92.40;;;;;;5123752;27;20047;-90
2021/07/02 08:09:18;;;;;;;13.57;8.60;;;17.30;92.40;;;;;;5120821;27;20040;-88
2021/07/02 08:11:45;;;;;;;11.32;8.27;;;17.30;92.40;;;;;;5123122;27;20047;-87
2021/07/02 08:14:12;;;;;;;12.55;8.93;;;17.30;92.20;;;;;;5123024;27;20419;-88
2021/07/02 08:16:39;;;;;;;12.43;8.07;;;17.30;92.20;;;;;;5118814;27;20090;-88
2021/07/02 08:19:05;;;;;;;11.05;7.53;;;17.40;92.10;;;;;;5123644;27;20078;-88
2021/07/02 08:21:39;;;;;;;11.15;7.72;;;17.40;92.10;;;;;;5121493;28;20044;-84
2021/07/02 08:24:05;;;;;;;12.85;7.68;;;17.40;92.00;;;;;;5128005;27;20562;-84
2021/07/02 08:26:30;;;;;;;13.20;8.30;;;17.40;92.10;;;;;;5134050;27;20130;-88
2021/07/02 08:31:41;;;;;;;10.45;8.02;;;17.40;92.10;;;;;;5120814;28;20056;-83
2021/07/02 08:34:06;;;;;;;12.13;8.52;;;17.40;92.10;;;;;;5113424;28;20047;-83
2021/07/02 08:36:32;;;;;;;15.20;8.73;;;17.50;92.20;;;;;;5114076;28;20533;-83
2021/07/02 08:38:58;;;;;;;13.38;8.70;;;17.50;92.00;;;;;;5112573;28;20104;-83
2021/07/02 08:41:23;;;;;;;13.30;8.63;;;17.50;91.90;;;;;;5094741;28;20415;-83
2021/07/02 08:43:49;;;;;;;12.73;8.80;;;17.50;92.00;;;;;;5118164;27;20432;-87
2021/07/02 08:46:19;;;;;;;13.65;8.98;;;17.60;92.10;;;;;;5137650;27;20096;-85
2021/07/02 08:48:48;;;;;;;12.98;8.80;;;17.60;92.10;;;;;;5136713;27;20406;-87
2021/07/02 08:51:14;;;;;;;15.02;10.25;;;17.60;92.00;;;;;;5134387;27;20044;-82
2021/07/02 08:53:40;;;;;;;14.73;10.55;;;17.60;92.00;;;;;;5129457;27;20371;-87
2021/07/02 08:56:07;;;;;;;15.18;10.25;;;17.70;92.00;;;;;;5120719;27;20094;-85
2021/07/02 08:58:35;;;;;;;17.55;11.40;;;17.70;91.90;;;;;;5118244;28;20055;-85
2021/07/02 09:01:07;;;;;;;14.10;10.63;;;17.70;92.10;;;;;;5119078;28;20050;-85
2021/07/02 09:03:38;;;;;;;17.05;11.57;;;17.70;92.10;;;;;;5117256;28;20052;-83
2021/07/02 09:06:11;;;;;;;16.80;11.65;;;17.80;92.00;;;;;;5116128;28;20057;-83
2021/07/02 09:08:37;;;;;;;16.98;11.23;;;17.80;91.90;;;;;;5116626;28;20054;-83
2021/07/02 09:11:22;;;;;;;15.00;10.35;;;17.90;91.70;;;;;;5117893;27;20051;-86
2021/07/02 09:13:48;;;;;;;17.00;11.35;;;17.90;91.70;;;;;;5115944;28;20058;-85
2021/07/02 09:16:38;;;;;;;19.83;13.15;;;17.90;91.60;;;;;;5116565;28;20048;-84
2021/07/02 09:19:24;;;;;;;18.23;12.68;;;17.90;91.50;;;;;;5116089;28;20380;-81
2021/07/02 09:21:51;;;;;;;14.63;10.38;;;17.90;91.40;;;;;;5116650;28;20082;-82
2021/07/02 09:24:37;;;;;;;15.70;11.02;;;17.90;91.40;;;;;;5116468;28;20070;-86
2021/07/02 09:27:29;;;;;;;17.30;11.20;;;17.90;91.30;;;;;;5115587;28;20443;-84
2021/07/02 09:30:11;;;;;;;18.08;11.95;;;17.90;91.30;;;;;;5116548;28;20138;-85
2021/07/02 09:32:39;;;;;;;21.23;12.93;;;18.00;91.40;;;;;;5117086;27;20147;-83
2021/07/02 09:35:05;;;;;;;12.43;8.82;;;18.00;91.50;;;;;;5115516;28;20047;-86
2021/07/02 09:37:39;;;;;;;15.10;10.05;;;18.00;91.30;;;;;;5116006;28;20048;-85
2021/07/02 09:40:18;;;;;;;13.13;9.50;;;18.10;91.30;;;;;;5115557;28;20414;-84
2021/07/02 09:42:45;;;;;;;14.50;10.65;;;18.00;91.10;;;;;;5123889;27;20050;-84
2021/07/02 09:45:16;;;;;;;17.63;12.07;;;18.00;91.20;;;;;;5126484;27;20043;-86
2021/07/02 09:47:45;;;;;;;19.63;11.63;;;18.10;91.50;;;;;;5124562;27;20259;-84
2021/07/02 09:50:24;;;;;;;14.77;10.48;;;18.10;91.40;;;;;;5128036;27;20080;-85
2021/07/02 09:52:57;;;;;;;17.33;10.93;;;18.10;91.10;;;;;;5122636;27;20067;-86
2021/07/02 09:55:28;;;;;;;16.13;10.80;;;18.10;91.10;;;;;;5114042;28;20123;-84
2021/07/02 09:58:02;;;;;;;16.35;10.70;;;18.10;91.00;;;;;;5122456;27;20118;-85
2021/07/02 10:00:27;;;;;;;14.57;9.82;;;18.10;91.00;;;;;;5129960;27;20035;-86
2021/07/02 10:02:58;;;;;;;14.23;10.20;;;18.20;91.00;;;;;;5133832;27;20379;-85
2021/07/02 10:05:25;;;;;;;14.60;9.43;;;18.20;90.90;;;;;;5136106;27;20051;-84
2021/07/02 10:07:58;;;;;;;15.07;10.05;;;18.20;90.90;;;;;;5136226;27;20517;-86
2021/07/02 10:10:25;;;;;;;16.02;10.00;;;18.20;90.80;;;;;;5132956;27;20479;-86
2021/07/02 10:12:53;;;;;;;18.42;10.65;;;18.20;90.90;;;;;;5115944;28;20488;-87
2021/07/02 10:15:20;;;;;;;14.77;10.43;;;18.20;90.90;;;;;;5114929;28;20051;-86
2021/07/02 10:17:46;;;;;;;17.63;10.63;;;18.20;90.90;;;;;;5115168;28;20407;-85
2021/07/02 10:20:14;;;;;;;14.40;9.85;;;18.20;91.00;;;;;;5115451;28;20044;-85
2021/07/02 10:22:41;;;;;;;13.95;9.60;;;18.20;91.00;;;;;;5114481;28;20078;-85
2021/07/02 10:25:11;;;;;;;15.05;10.05;;;18.20;91.10;;;;;;5131400;27;20043;-85
2021/07/02 10:27:38;;;;;;;16.05;10.65;;;18.20;91.10;;;;;;5134155;27;20062;-85
2021/07/02 10:30:06;;;;;;;16.45;10.70;;;18.20;91.20;;;;;;5124688;27;20479;-84
2021/07/02 10:32:32;;;;;;;15.38;10.45;;;18.20;91.30;;;;;;5135708;27;20043;-84
2021/07/02 10:34:59;;;;;;;15.77;10.25;;;18.20;91.30;;;;;;5135336;27;20411;-84
2021/07/02 10:37:26;;;;;;;12.88;8.93;;;18.20;91.30;;;;;;5134645;27;20043;-85
2021/07/02 10:39:53;;;;;;;13.60;9.35;;;18.20;91.10;;;;;;5135982;27;20061;-85
2021/07/02 10:42:19;;;;;;;16.70;11.38;;;18.20;91.10;;;;;;5128377;27;20043;-86
2021/07/02 10:44:54;;;;;;;17.48;11.40;;;18.20;91.40;;;;;;5116581;27;20121;-85
2021/07/02 10:47:24;;;;;;;13.25;9.65;;;18.20;91.50;;;;;;5114683;28;20067;-88
2021/07/02 10:49:50;;;;;;;14.88;10.38;;;18.20;91.50;;;;;;5129335;27;20040;-88
2021/07/02 10:52:27;;;;;;;16.40;10.57;;;18.20;91.40;;;;;;5134470;27;20051;-89
2021/07/02 10:54:54;;;;;;;18.17;11.75;;;18.20;91.50;;;;;;5134521;27;20138;-89
2021/07/02 10:57:22;;;;;;;12.73;9.05;;;18.20;91.70;;;;;;5134572;27;20138;-89
2021/07/02 10:59:51;;;;;;;18.58;12.30;;;18.20;91.40;;;;;;5135628;27;20047;-89
2021/07/02 11:02:20;;;;;;;17.92;11.48;;;18.20;91.60;;;;;;5135284;27;20554;-89
2021/07/02 11:04:48;;;;;;;14.65;10.32;;;18.30;91.60;;;;;;5134294;27;20072;-89
2021/07/02 11:07:14;;;;;;;17.15;11.90;;;18.30;91.60;;;;;;5134217;27;20126;-89
2021/07/02 11:09:49;;;;;;;17.75;11.23;;;18.30;91.60;;;;;;5135037;27;20530;-89
2021/07/02 11:12:27;;;;;;;15.50;10.55;;;18.30;91.50;;;;;;5134434;27;20047;-89
2021/07/02 11:14:53;;;;;;;17.52;10.85;;;18.30;91.50;;;;;;5135183;27;20043;-89
2021/07/02 11:17:27;;;;;;;16.48;10.65;;;18.30;91.60;;;;;;5135129;27;20047;-89
2021/07/02 11:20:07;;;;;;;18.25;11.77;;;18.30;91.60;;;;;;5134456;27;20092;-88
2021/07/02 11:22:44;;;;;;;14.25;10.02;;;18.30;91.60;;;;;;5133817;27;20056;-88
2021/07/02 11:25:43;;;;;;;17.20;11.18;;;18.30;91.50;;;;;;5134302;27;20075;-88
2021/07/02 11:28:12;;;;;;;22.25;12.63;;;18.30;91.40;;;;;;5134084;27;20067;-89
2021/07/02 11:30:42;;;;;;;19.98;12.50;;;18.30;91.60;;;;;;5134123;27;20051;-90
2021/07/02 11:33:08;;;;;;;18.67;12.05;;;18.30;91.70;;;;;;5134033;27;20051;-88
2021/07/02 11:35:35;;;;;;;18.45;11.13;;;18.30;91.70;;;;;;5133949;27;20500;-87
2021/07/02 11:38:05;;;;;;;17.42;11.45;;;18.30;91.80;;;;;;5134469;27;20051;-89
2021/07/02 11:40:32;;;;;;;16.75;11.13;;;18.30;91.80;;;;;;5133815;27;20406;-90
2021/07/02 11:43:00;;;;;;;14.43;9.05;;;18.30;91.80;;;;;;5134449;27;20039;-90
2021/07/02 11:45:46;;;;;;;12.77;8.23;;;18.30;91.90;;;;;;5134949;27;20047;-90
2021/07/02 11:48:21;;;;;;;12.07;8.70;;;18.30;91.90;;;;;;5133973;27;20057;-88
2021/07/02 11:50:54;;;;;;;9.43;6.65;;;18.40;91.80;;;;;;5134584;27;20135;-89
2021/07/02 11:53:28;;;;;;;10.95;7.43;;;18.40;92.00;;;;;;5134999;27;20044;-89
2021/07/02 11:56:04;;;;;;;13.70;8.07;;;18.50;91.90;;;;;;5134090;27;20051;-89
2021/07/02 11:58:35;;;;;;;12.60;8.80;;;18.50;91.90;;;;;;5133856;27;20514;-89
2021/07/02 12:01:10;;;;;;;12.30;8.32;;;18.60;92.20;;;;;;5133759;27;20043;-88
2021/07/02 12:03:37;;;;;;;11.90;8.18;;;18.60;92.30;;;;;;5134202;27;20053;-89
2021/07/02 12:06:04;;;;;;;10.45;7.50;;;18.70;92.10;;;;;;5134373;27;20055;-89
2021/07/02 12:08:31;;;;;;;11.18;6.30;;;18.80;91.80;;;;;;5133152;27;20053;-88
2021/07/02 12:11:03;;;;;;;8.95;5.57;;;18.80;91.70;;;;;;5133848;27;20171;-89
2021/07/02 12:13:33;;;;;;;9.50;5.68;;;18.90;91.50;;;;;;5134316;27;20066;-91
2021/07/02 12:16:10;;;;;;;8.90;5.93;;;19.00;91.60;;;;;;5133616;27;20517;-90
2021/07/02 12:18:39;;;;;;;8.10;5.25;;;19.10;91.80;;;;;;5133579;27;20051;-88
2021/07/02 12:21:10;;;;;;;12.90;5.97;;;19.20;91.60;;;;;;5133878;27;20494;-88
2021/07/02 12:23:38;;;;;;;11.13;6.35;;;19.30;91.20;;;;;;5132680;27;20047;-89
2021/07/02 12:26:20;;;;;;;8.45;5.68;;;19.30;91.00;;;;;;5133951;27;20043;-89
2021/07/02 12:28:51;;;;;;;9.70;6.43;;;19.40;90.90;;;;;;5133034;27;20055;-89
2021/07/02 12:31:20;;;;;;;9.65;6.63;;;19.50;91.00;;;;;;5133703;27;20487;-88
2021/07/02 12:33:46;;;;;;;9.63;6.53;;;19.50;90.80;;;;;;5133549;28;20043;-88
2021/07/02 12:36:12;;;;;;;9.90;5.70;;;19.60;90.60;;;;;;5132806;28;20517;-89
2021/07/02 12:39:07;;;;;;;9.82;6.13;;;19.70;90.30;;;;;;5133538;28;20047;-87
2021/07/02 12:41:44;;;;;;;10.63;6.00;;;19.80;90.20;;;;;;5133534;28;20055;-88
2021/07/02 12:44:16;;;;;;;10.38;6.30;;;19.80;89.20;;;;;;5132932;28;20043;-89